Time;durP1;ratioP1;P1;durP2;ratioP2;P2;SDS_P1;SDS_P2;PMS_P1;PMS_P2;Temp;Humidity;BMP_temperature;BMP_pressure;BME280_temperature;BME280_humidity;BME280_pressure;Samples;Min_cycle;Max_cycle;Signal;HPM_P1;HPM_P2
2022/07/24 00:00:41;;;;;;;8.70;7.37;;;20.20;99.00;;;;;;5052270;28;20448;-73
2022/07/24 00:03:26;;;;;;;9.90;7.83;;;20.30;99.10;;;;;;5048143;28;20471;-75
2022/07/24 00:06:12;;;;;;;11.40;8.13;;;20.30;98.70;;;;;;5050263;28;20561;-76
2022/07/24 00:08:58;;;;;;;10.20;8.77;;;20.20;99.00;;;;;;5044239;28;20515;-76
2022/07/24 00:11:45;;;;;;;11.13;7.37;;;20.30;99.10;;;;;;5050732;28;20448;-76
2022/07/24 00:14:31;;;;;;;8.90;8.00;;;20.20;98.50;;;;;;5061579;28;20447;-75
2022/07/24 00:17:16;;;;;;;8.77;7.83;;;20.00;98.60;;;;;;5050656;28;20544;-75
2022/07/24 00:20:02;;;;;;;9.97;8.27;;;20.10;98.50;;;;;;5051018;28;20638;-76
2022/07/24 00:22:48;;;;;;;7.80;6.80;;;20.10;98.10;;;;;;5053186;28;20463;-76
2022/07/24 00:25:33;;;;;;;8.10;7.30;;;19.90;98.10;;;;;;5047213;28;20526;-76
2022/07/24 00:28:21;;;;;;;8.23;7.43;;;20.00;98.30;;;;;;5046826;28;20444;-76
2022/07/24 00:31:07;;;;;;;8.93;7.70;;;19.90;98.50;;;;;;5052849;28;20441;-76
2022/07/24 00:33:52;;;;;;;8.97;7.93;;;19.90;98.40;;;;;;5053756;28;20483;-76
2022/07/24 00:36:38;;;;;;;9.87;7.37;;;19.70;98.30;;;;;;5050107;28;20418;-74
2022/07/24 00:39:24;;;;;;;11.00;7.50;;;19.80;98.30;;;;;;5043862;28;20574;-75
2022/07/24 00:42:09;;;;;;;10.80;7.43;;;19.70;97.90;;;;;;5051440;28;20499;-76
2022/07/24 00:44:57;;;;;;;9.17;7.20;;;19.80;98.50;;;;;;5050665;28;21023;-75
2022/07/24 00:47:42;;;;;;;11.73;8.13;;;19.70;98.60;;;;;;5047522;28;20438;-75
2022/07/24 00:50:28;;;;;;;12.83;6.80;;;19.60;98.70;;;;;;5049174;28;20939;-74
2022/07/24 00:53:15;;;;;;;8.97;8.00;;;19.60;98.80;;;;;;5049429;28;20482;-76
2022/07/24 00:56:01;;;;;;;9.93;7.47;;;19.60;98.80;;;;;;5048927;28;20432;-76
2022/07/24 00:58:47;;;;;;;11.13;7.73;;;19.70;98.80;;;;;;5046738;28;20444;-75
2022/07/24 01:01:34;;;;;;;8.40;7.33;;;19.50;98.80;;;;;;5049057;28;20443;-74
2022/07/24 01:04:20;;;;;;;9.60;6.73;;;19.40;98.70;;;;;;5048000;28;20458;-76
2022/07/24 01:07:06;;;;;;;8.30;7.50;;;19.40;98.70;;;;;;5045519;28;20554;-75
2022/07/24 01:09:52;;;;;;;8.97;6.97;;;19.40;98.70;;;;;;5048742;28;20439;-75
2022/07/24 01:12:40;;;;;;;11.93;6.40;;;19.30;98.70;;;;;;5048779;28;20466;-76
2022/07/24 01:15:25;;;;;;;8.60;7.30;;;19.20;98.90;;;;;;5048395;28;20813;-74
2022/07/24 01:18:12;;;;;;;10.50;7.27;;;19.10;99.00;;;;;;5041773;28;20506;-76
2022/07/24 01:20:59;;;;;;;12.90;7.83;;;19.20;98.90;;;;;;5051130;28;20443;-75
2022/07/24 01:23:45;;;;;;;9.90;7.73;;;19.30;98.70;;;;;;5051043;28;21236;-75
2022/07/24 01:26:31;;;;;;;7.90;7.10;;;19.30;98.70;;;;;;5046024;28;20491;-74
2022/07/24 01:29:17;;;;;;;8.87;6.87;;;19.20;98.70;;;;;;5047642;28;20470;-76
2022/07/24 01:32:03;;;;;;;9.43;6.00;;;19.00;98.90;;;;;;5045433;28;20843;-76
2022/07/24 01:34:48;;;;;;;9.57;6.23;;;19.00;98.60;;;;;;5046564;28;20700;-75
2022/07/24 01:37:35;;;;;;;9.90;6.33;;;18.90;99.00;;;;;;5046103;28;20466;-74
2022/07/24 01:40:22;;;;;;;9.67;6.57;;;18.90;98.50;;;;;;5048042;28;20458;-75
2022/07/24 01:43:07;;;;;;;7.80;7.03;;;18.80;98.70;;;;;;5047811;28;20475;-76
2022/07/24 01:45:53;;;;;;;6.37;5.60;;;18.80;98.60;;;;;;5050770;28;20475;-73
2022/07/24 01:48:40;;;;;;;7.97;6.43;;;18.80;98.50;;;;;;5045829;28;20468;-75
2022/07/24 01:51:25;;;;;;;9.37;6.57;;;18.80;98.50;;;;;;5048584;28;20583;-75
2022/07/24 01:54:12;;;;;;;8.77;6.10;;;18.70;98.50;;;;;;5048760;28;20502;-75
2022/07/24 01:56:58;;;;;;;7.93;6.60;;;18.80;98.50;;;;;;5047018;28;20807;-76
2022/07/24 01:59:43;;;;;;;7.93;6.20;;;18.90;98.30;;;;;;5049858;28;20454;-75
2022/07/24 02:02:29;;;;;;;9.20;6.53;;;18.80;98.50;;;;;;5051102;28;20482;-72
2022/07/24 02:05:16;;;;;;;9.30;6.40;;;18.80;98.40;;;;;;5048973;28;20487;-73
2022/07/24 02:08:01;;;;;;;14.20;5.93;;;18.70;98.30;;;;;;5044716;28;20439;-75
2022/07/24 02:10:48;;;;;;;7.90;5.77;;;18.70;98.50;;;;;;5048250;28;20530;-76
2022/07/24 02:13:34;;;;;;;9.63;6.23;;;18.60;98.40;;;;;;5050080;28;20676;-76
2022/07/24 02:16:20;;;;;;;8.03;5.93;;;18.60;98.70;;;;;;5045730;28;20466;-74
2022/07/24 02:19:05;;;;;;;7.73;6.10;;;18.60;98.40;;;;;;5048335;28;20442;-75
2022/07/24 02:21:51;;;;;;;7.37;6.03;;;18.60;98.40;;;;;;5046980;28;20582;-75
2022/07/24 02:24:37;;;;;;;6.87;5.30;;;18.50;98.60;;;;;;5053442;28;20439;-76
2022/07/24 02:27:24;;;;;;;9.47;6.13;;;18.60;98.60;;;;;;5045980;28;20482;-75
2022/07/24 02:30:12;;;;;;;7.17;5.47;;;18.50;98.80;;;;;;5048636;28;20463;-76
2022/07/24 02:32:58;;;;;;;8.73;6.10;;;18.60;98.80;;;;;;5051644;28;20659;-78
2022/07/24 02:35:43;;;;;;;9.50;6.40;;;18.50;98.50;;;;;;5046567;28;21005;-76
2022/07/24 02:38:29;;;;;;;8.33;6.60;;;18.50;98.70;;;;;;5046559;28;20586;-76
2022/07/24 02:41:14;;;;;;;7.07;6.20;;;18.50;98.90;;;;;;5046540;28;20533;-73
2022/07/24 02:44:02;;;;;;;7.50;6.00;;;18.40;98.50;;;;;;5048500;28;20549;-74
2022/07/24 02:46:48;;;;;;;10.27;6.00;;;18.40;98.70;;;;;;5045707;28;21075;-75
2022/07/24 02:49:33;;;;;;;8.70;5.73;;;18.20;99.00;;;;;;5047302;28;20451;-76
2022/07/24 02:52:19;;;;;;;7.50;6.27;;;18.20;99.30;;;;;;5046913;28;21410;-75
2022/07/24 02:55:06;;;;;;;7.93;7.13;;;18.20;99.40;;;;;;5041762;28;21240;-75
2022/07/24 02:57:51;;;;;;;7.10;6.00;;;18.30;99.30;;;;;;5051664;28;20485;-76
2022/07/24 03:00:39;;;;;;;8.97;7.10;;;18.20;99.60;;;;;;5049276;28;20469;-75
2022/07/24 03:03:24;;;;;;;9.43;6.30;;;18.10;99.60;;;;;;5049137;28;21050;-75
2022/07/24 03:06:10;;;;;;;7.63;6.87;;;18.20;99.70;;;;;;5047502;28;20936;-76
2022/07/24 03:08:55;;;;;;;9.70;6.23;;;18.20;99.90;;;;;;5049210;28;20446;-72
2022/07/24 03:11:41;;;;;;;7.13;6.13;;;18.10;99.90;;;;;;5054118;28;20537;-77
2022/07/24 03:14:26;;;;;;;8.73;6.70;;;18.10;99.90;;;;;;5048327;28;20464;-75
2022/07/24 03:17:13;;;;;;;7.83;6.60;;;18.00;99.90;;;;;;5048718;28;20482;-75
2022/07/24 03:19:59;;;;;;;9.90;6.90;;;18.00;99.90;;;;;;5054245;28;20463;-75
2022/07/24 03:22:45;;;;;;;12.63;6.00;;;18.00;99.90;;;;;;5051983;28;20602;-75
2022/07/24 03:25:31;;;;;;;8.13;6.57;;;18.00;99.90;;;;;;5051427;28;20434;-76
2022/07/24 03:28:16;;;;;;;8.57;6.60;;;17.90;99.90;;;;;;5050582;28;20457;-75
2022/07/24 03:31:02;;;;;;;8.40;6.97;;;17.90;99.90;;;;;;5055127;28;20446;-74
2022/07/24 03:33:49;;;;;;;7.67;6.63;;;17.90;99.90;;;;;;5049070;28;20626;-75
2022/07/24 03:36:35;;;;;;;8.20;6.17;;;17.90;99.90;;;;;;5047618;28;20434;-75
2022/07/24 03:39:20;;;;;;;8.17;6.87;;;18.00;99.90;;;;;;5047753;28;20458;-77
2022/07/24 03:42:06;;;;;;;14.10;6.87;;;17.90;99.90;;;;;;5046918;28;20493;-76
2022/07/24 03:44:52;;;;;;;9.80;6.00;;;17.90;99.90;;;;;;5048051;28;20451;-77
2022/07/24 03:47:38;;;;;;;7.33;6.53;;;17.90;99.90;;;;;;5054648;28;20516;-76
2022/07/24 03:50:25;;;;;;;8.40;6.87;;;17.80;99.90;;;;;;5049584;28;20455;-75
2022/07/24 03:53:11;;;;;;;7.30;5.97;;;17.90;99.90;;;;;;5048947;28;20467;-76
2022/07/24 03:55:57;;;;;;;6.90;6.20;;;18.00;99.90;;;;;;5048233;28;20566;-73
2022/07/24 03:58:43;;;;;;;7.67;6.43;;;18.00;99.90;;;;;;5052290;28;20463;-74
2022/07/24 04:01:28;;;;;;;7.67;6.47;;;18.00;99.90;;;;;;5054149;28;20488;-75
2022/07/24 04:04:14;;;;;;;9.00;5.93;;;18.10;99.90;;;;;;5048001;28;20422;-75
2022/07/24 04:07:01;;;;;;;7.97;6.00;;;18.20;99.90;;;;;;5051397;28;20479;-75
2022/07/24 04:09:47;;;;;;;7.17;6.27;;;18.30;99.90;;;;;;5050277;28;20459;-76
2022/07/24 04:12:32;;;;;;;9.83;6.00;;;18.30;99.90;;;;;;5051404;28;20478;-76
2022/07/24 04:15:18;;;;;;;9.23;7.60;;;18.40;99.90;;;;;;5046678;28;20422;-76
2022/07/24 04:18:04;;;;;;;10.03;7.60;;;18.50;99.90;;;;;;5050803;28;20972;-75
2022/07/24 04:20:50;;;;;;;6.97;6.27;;;18.50;99.90;;;;;;5052100;28;20520;-74
2022/07/24 04:23:37;;;;;;;7.37;6.20;;;18.50;99.90;;;;;;5046276;28;20463;-75
2022/07/24 04:26:23;;;;;;;8.10;6.10;;;18.60;99.90;;;;;;5049367;28;20611;-75
2022/07/24 04:29:09;;;;;;;15.57;6.43;;;18.60;99.90;;;;;;5049660;28;20463;-76
2022/07/24 04:31:55;;;;;;;7.50;5.57;;;18.50;99.90;;;;;;5052420;28;20462;-76
2022/07/24 04:34:41;;;;;;;8.53;6.00;;;18.50;99.90;;;;;;5044216;28;20443;-75
2022/07/24 04:37:26;;;;;;;7.23;6.07;;;18.50;99.90;;;;;;5048875;28;20444;-71
2022/07/24 04:40:14;;;;;;;11.23;7.40;;;18.50;99.90;;;;;;5053416;28;20549;-76
2022/07/24 04:43:00;;;;;;;6.87;6.17;;;18.60;99.90;;;;;;5045919;28;20483;-73
2022/07/24 04:45:45;;;;;;;9.90;7.10;;;18.70;99.90;;;;;;5046928;28;21006;-73
2022/07/24 04:48:32;;;;;;;9.23;6.70;;;18.70;99.90;;;;;;5052227;28;20533;-73
2022/07/24 04:51:18;;;;;;;14.57;7.57;;;18.70;99.90;;;;;;5050692;28;20574;-73
2022/07/24 04:54:04;;;;;;;11.63;7.30;;;18.70;99.90;;;;;;5044726;28;20992;-73
2022/07/24 04:56:51;;;;;;;6.40;5.80;;;18.70;99.90;;;;;;5047810;28;20769;-73
2022/07/24 04:59:37;;;;;;;7.30;6.13;;;18.70;99.90;;;;;;5050329;28;20493;-73
2022/07/24 05:02:23;;;;;;;7.60;6.70;;;18.70;99.90;;;;;;5051983;28;20466;-73
2022/07/24 05:05:09;;;;;;;7.03;6.33;;;18.70;99.90;;;;;;5048980;28;20809;-73
2022/07/24 05:07:54;;;;;;;8.43;6.03;;;18.70;99.90;;;;;;5049412;28;20487;-73
2022/07/24 05:10:40;;;;;;;8.67;6.90;;;18.70;99.90;;;;;;5051086;28;20461;-73
2022/07/24 05:13:27;;;;;;;16.43;6.40;;;18.70;99.90;;;;;;5043346;28;21112;-73
2022/07/24 05:16:13;;;;;;;7.80;6.23;;;18.80;99.90;;;;;;5048757;28;20435;-73
2022/07/24 05:18:58;;;;;;;9.03;6.80;;;18.90;99.90;;;;;;5048561;28;20490;-73
2022/07/24 05:21:44;;;;;;;7.63;6.23;;;19.10;99.90;;;;;;5045863;28;20459;-73
2022/07/24 05:24:30;;;;;;;7.77;6.17;;;19.10;99.90;;;;;;5046508;28;20456;-73
2022/07/24 05:27:15;;;;;;;10.53;6.90;;;19.20;99.90;;;;;;5047817;28;20936;-72
2022/07/24 05:30:02;;;;;;;7.07;5.40;;;19.30;99.90;;;;;;5046903;28;20899;-73
2022/07/24 05:32:48;;;;;;;7.53;6.70;;;19.40;99.90;;;;;;5045761;28;20463;-73
2022/07/24 05:35:33;;;;;;;6.33;5.73;;;19.50;99.90;;;;;;5050790;28;20458;-73
2022/07/24 05:38:19;;;;;;;7.37;6.67;;;19.70;99.90;;;;;;5054696;28;20538;-73
2022/07/24 05:41:05;;;;;;;11.30;6.60;;;19.90;99.90;;;;;;5050679;28;20458;-73
2022/07/24 05:43:50;;;;;;;7.83;7.13;;;19.90;99.90;;;;;;5044429;28;20491;-73
2022/07/24 05:46:37;;;;;;;10.97;7.27;;;19.90;99.90;;;;;;5051450;28;21117;-73
2022/07/24 05:49:23;;;;;;;11.50;6.77;;;20.10;99.90;;;;;;5052361;28;20517;-73
2022/07/24 05:52:08;;;;;;;7.63;6.27;;;20.20;99.90;;;;;;5047519;28;20475;-73
2022/07/24 05:54:54;;;;;;;6.70;6.00;;;20.20;99.90;;;;;;5052223;28;20526;-74
2022/07/24 05:57:40;;;;;;;8.50;6.60;;;20.30;99.90;;;;;;5046620;28;20455;-74
2022/07/24 06:00:25;;;;;;;9.47;5.87;;;20.30;99.90;;;;;;5051887;28;20459;-73
2022/07/24 06:03:13;;;;;;;16.70;6.40;;;20.40;99.90;;;;;;5050018;28;20468;-74
2022/07/24 06:05:59;;;;;;;8.37;7.00;;;20.60;99.90;;;;;;5048994;28;20486;-74
2022/07/24 06:08:45;;;;;;;6.63;5.93;;;20.70;99.90;;;;;;5052279;28;20451;-74
2022/07/24 06:11:31;;;;;;;11.80;7.13;;;20.80;99.90;;;;;;5050571;28;21015;-74
2022/07/24 06:14:16;;;;;;;11.03;6.37;;;21.00;99.90;;;;;;5047398;28;20956;-73
2022/07/24 06:17:02;;;;;;;7.80;7.00;;;21.00;99.90;;;;;;5047100;28;20971;-74
2022/07/24 06:19:49;;;;;;;7.40;5.80;;;21.20;99.90;;;;;;5049440;28;20442;-74
2022/07/24 06:22:35;;;;;;;10.20;6.63;;;21.30;99.90;;;;;;5044785;28;20524;-74
2022/07/24 06:25:21;;;;;;;7.53;6.03;;;21.40;99.90;;;;;;5049638;28;20571;-74
2022/07/24 06:28:07;;;;;;;7.47;5.90;;;21.60;99.90;;;;;;5047977;28;20486;-74
2022/07/24 06:30:53;;;;;;;7.57;6.60;;;21.70;99.30;;;;;;5048479;28;20470;-74
2022/07/24 06:33:38;;;;;;;6.90;6.07;;;21.90;98.60;;;;;;5047799;28;20470;-74
2022/07/24 06:36:27;;;;;;;9.53;5.93;;;21.90;97.20;;;;;;5049016;28;20818;-74
2022/07/24 06:39:13;;;;;;;7.23;6.17;;;22.10;96.90;;;;;;5048665;28;20432;-74
2022/07/24 06:41:58;;;;;;;6.77;6.07;;;22.10;95.20;;;;;;5047740;28;20443;-74
2022/07/24 06:44:44;;;;;;;7.93;6.23;;;22.20;95.20;;;;;;5050666;28;20988;-73
2022/07/24 06:47:29;;;;;;;7.30;5.80;;;22.20;95.30;;;;;;5051883;28;21041;-74
2022/07/24 06:50:16;;;;;;;7.20;5.83;;;22.30;94.90;;;;;;5049747;28;20443;-73
2022/07/24 06:53:03;;;;;;;7.30;6.03;;;22.30;94.40;;;;;;5051477;28;20477;-74
2022/07/24 06:55:53;;;;;;;7.50;6.10;;;22.40;95.10;;;;;;5046570;28;20949;-74
2022/07/24 06:58:38;;;;;;;6.43;5.83;;;22.50;94.70;;;;;;5049808;28;20439;-74
2022/07/24 07:01:25;;;;;;;17.83;6.93;;;22.60;92.50;;;;;;5049666;28;20440;-74
2022/07/24 07:04:11;;;;;;;6.47;5.83;;;22.70;89.10;;;;;;5052195;28;20494;-74
2022/07/24 07:06:57;;;;;;;7.17;6.03;;;22.70;87.50;;;;;;5049587;28;20471;-74
2022/07/24 07:09:44;;;;;;;6.43;5.57;;;22.80;84.20;;;;;;5055683;28;20448;-74
2022/07/24 07:12:30;;;;;;;6.70;5.23;;;22.90;83.30;;;;;;5052746;28;20471;-74
2022/07/24 07:15:15;;;;;;;6.93;6.10;;;23.00;77.30;;;;;;5052581;28;20937;-74
2022/07/24 07:18:01;;;;;;;9.53;5.93;;;23.10;76.10;;;;;;5049491;28;20959;-74
2022/07/24 07:20:47;;;;;;;6.03;5.43;;;23.20;75.90;;;;;;5049221;28;20534;-74
2022/07/24 07:23:33;;;;;;;6.97;5.90;;;23.30;74.80;;;;;;5052773;28;20463;-74
2022/07/24 07:26:20;;;;;;;7.33;6.63;;;23.40;74.90;;;;;;5050624;28;20971;-74
2022/07/24 07:29:06;;;;;;;8.97;5.67;;;23.50;76.20;;;;;;5054169;28;20798;-74
2022/07/24 07:31:51;;;;;;;7.10;6.20;;;23.70;75.70;;;;;;5053579;28;20447;-74
2022/07/24 07:34:37;;;;;;;7.07;5.93;;;23.70;70.40;;;;;;5049209;28;20443;-74
2022/07/24 07:37:23;;;;;;;7.90;5.80;;;23.80;70.20;;;;;;5052736;28;20436;-74
2022/07/24 07:40:10;;;;;;;8.47;5.27;;;23.90;68.10;;;;;;5055195;28;20447;-74
2022/07/24 07:42:57;;;;;;;6.20;5.33;;;23.90;68.10;;;;;;5053967;28;20857;-74
2022/07/24 07:45:43;;;;;;;7.10;5.77;;;24.00;65.20;;;;;;5049393;28;20483;-74
2022/07/24 07:48:30;;;;;;;7.80;6.00;;;24.00;61.60;;;;;;5051467;28;20483;-74
2022/07/24 07:51:16;;;;;;;7.43;5.80;;;24.10;57.80;;;;;;5046081;28;20452;-74
2022/07/24 07:54:02;;;;;;;6.63;5.80;;;24.10;59.40;;;;;;5049778;28;20577;-74
2022/07/24 07:56:47;;;;;;;8.33;6.17;;;24.20;60.80;;;;;;5050353;28;20590;-74
2022/07/24 07:59:34;;;;;;;9.97;6.10;;;24.20;58.70;;;;;;5051565;28;20466;-74
2022/07/24 08:02:20;;;;;;;7.00;5.80;;;24.30;57.90;;;;;;5049538;28;20581;-74
2022/07/24 08:05:07;;;;;;;7.27;6.17;;;24.40;58.70;;;;;;5050443;28;20490;-74
2022/07/24 08:07:52;;;;;;;8.87;5.90;;;24.40;58.00;;;;;;5045406;28;20483;-74
2022/07/24 08:10:38;;;;;;;6.17;5.40;;;24.50;58.10;;;;;;5047253;28;20452;-74
2022/07/24 08:13:24;;;;;;;7.77;5.53;;;24.70;58.30;;;;;;5051462;28;20482;-74
2022/07/24 08:16:11;;;;;;;8.70;5.70;;;24.80;62.10;;;;;;5048281;28;20443;-74
2022/07/24 08:18:57;;;;;;;10.33;6.10;;;24.80;58.40;;;;;;5052754;28;20440;-74
2022/07/24 08:21:42;;;;;;;9.17;5.47;;;24.90;58.50;;;;;;5053163;28;20593;-75
2022/07/24 08:24:30;;;;;;;6.90;5.80;;;25.00;60.30;;;;;;5055356;28;20566;-74
2022/07/24 08:27:15;;;;;;;8.80;6.20;;;25.10;57.80;;;;;;5050987;28;20494;-74
2022/07/24 08:30:01;;;;;;;8.00;5.33;;;25.20;57.90;;;;;;5048913;28;20447;-74
2022/07/24 08:32:48;;;;;;;10.47;6.50;;;25.20;57.30;;;;;;5052369;28;20470;-74
2022/07/24 08:35:33;;;;;;;7.80;6.70;;;25.30;58.00;;;;;;5048124;28;20451;-74
2022/07/24 08:38:19;;;;;;;7.93;6.37;;;25.30;54.60;;;;;;5053222;28;20435;-74
2022/07/24 08:41:06;;;;;;;10.43;6.33;;;25.50;56.20;;;;;;5048112;28;20450;-74
2022/07/24 08:43:51;;;;;;;9.90;6.57;;;25.50;59.00;;;;;;5050746;28;21023;-74
2022/07/24 08:46:38;;;;;;;8.73;6.47;;;25.60;56.00;;;;;;5050751;28;21068;-74
2022/07/24 08:49:31;;;;;;;8.10;6.97;;;25.70;54.50;;;;;;5048065;28;20579;-74
2022/07/24 08:52:18;;;;;;;7.77;6.10;;;25.70;56.10;;;;;;5057585;28;20452;-74
2022/07/24 08:55:05;;;;;;;7.03;6.33;;;25.80;53.80;;;;;;5046722;28;20524;-74
2022/07/24 08:57:50;;;;;;;7.63;6.77;;;25.80;53.10;;;;;;5053335;28;20493;-74
2022/07/24 09:00:36;;;;;;;10.43;6.87;;;25.90;52.10;;;;;;5043425;28;20805;-74
2022/07/24 09:03:22;;;;;;;7.93;7.03;;;25.90;51.30;;;;;;5050241;28;20459;-74
2022/07/24 09:06:10;;;;;;;7.83;6.70;;;25.90;51.30;;;;;;5048815;28;20470;-74
2022/07/24 09:09:00;;;;;;;7.80;6.57;;;26.10;51.40;;;;;;5048235;28;20502;-74
2022/07/24 09:11:46;;;;;;;6.97;6.27;;;26.00;49.10;;;;;;5050719;28;20617;-74
2022/07/24 09:14:32;;;;;;;8.80;6.40;;;26.00;49.00;;;;;;5054071;28;20991;-74
2022/07/24 09:17:19;;;;;;;14.53;7.10;;;26.10;48.20;;;;;;5052816;28;20555;-74
2022/07/24 09:20:08;;;;;;;11.37;7.07;;;26.20;49.10;;;;;;5046504;28;20447;-73
2022/07/24 09:22:58;;;;;;;12.20;7.30;;;26.30;46.60;;;;;;5046452;28;20483;-74
2022/07/24 09:25:51;;;;;;;10.47;6.70;;;26.30;48.10;;;;;;5050364;28;20536;-74
2022/07/24 09:28:49;;;;;;;10.70;7.60;;;26.40;46.00;;;;;;5048940;28;20598;-74
2022/07/24 09:31:50;;;;;;;10.73;8.10;;;26.50;46.10;;;;;;5046376;28;20988;-74
2022/07/24 09:34:40;;;;;;;8.50;7.60;;;26.50;46.10;;;;;;5051307;28;20454;-74
2022/07/24 09:37:28;;;;;;;7.50;6.60;;;26.50;47.30;;;;;;5048351;28;20547;-74
2022/07/24 09:40:17;;;;;;;8.77;6.90;;;26.60;46.20;;;;;;5044137;28;20455;-74
2022/07/24 09:43:19;;;;;;;11.50;7.73;;;26.70;46.30;;;;;;5048396;28;21169;-74
2022/07/24 09:46:07;;;;;;;11.97;8.40;;;26.80;46.40;;;;;;5047956;28;20447;-74
2022/07/24 09:48:56;;;;;;;9.73;7.70;;;26.90;46.40;;;;;;5044666;28;20481;-74
2022/07/24 09:51:43;;;;;;;7.50;6.80;;;27.00;44.70;;;;;;5049805;28;20454;-74
2022/07/24 09:54:32;;;;;;;10.30;7.93;;;27.10;44.40;;;;;;5048432;28;20530;-74
2022/07/24 09:57:24;;;;;;;12.40;8.07;;;27.10;41.70;;;;;;5050858;28;20466;-73
2022/07/24 10:00:11;;;;;;;8.30;7.40;;;27.10;43.00;;;;;;5042159;28;20444;-74
2022/07/24 10:03:00;;;;;;;11.93;6.87;;;27.30;43.50;;;;;;5048041;28;20470;-74
2022/07/24 10:05:47;;;;;;;8.50;7.70;;;27.40;41.70;;;;;;5049700;28;20851;-74
2022/07/24 10:08:34;;;;;;;7.50;6.80;;;27.40;43.20;;;;;;5045215;28;21071;-74
2022/07/24 10:11:21;;;;;;;9.10;7.40;;;27.40;41.30;;;;;;5048748;28;20474;-74
2022/07/24 10:14:08;;;;;;;7.90;7.10;;;27.50;41.60;;;;;;5054808;28;20470;-74
2022/07/24 10:17:05;;;;;;;10.43;8.50;;;27.50;40.70;;;;;;5052023;28;20858;-74
2022/07/24 10:19:52;;;;;;;12.53;8.50;;;27.60;40.50;;;;;;5053476;28;21011;-74
2022/07/24 10:22:48;;;;;;;9.77;8.67;;;27.60;40.10;;;;;;5056390;28;20824;-74
2022/07/24 10:25:53;;;;;;;8.60;7.70;;;27.70;40.10;;;;;;5057024;28;20447;-74
2022/07/24 10:28:41;;;;;;;10.60;7.70;;;27.70;41.40;;;;;;5047953;28;20478;-74
2022/07/24 10:31:29;;;;;;;9.50;8.53;;;27.80;39.90;;;;;;5053211;28;20451;-73
2022/07/24 10:34:34;;;;;;;13.00;8.37;;;27.90;40.70;;;;;;5052549;28;20471;-73
2022/07/24 10:37:27;;;;;;;11.47;9.27;;;27.90;39.60;;;;;;5053114;28;20455;-72
2022/07/24 10:40:25;;;;;;;11.13;8.90;;;27.90;39.10;;;;;;5049435;28;20447;-73
2022/07/24 10:43:16;;;;;;;9.97;8.97;;;27.90;36.60;;;;;;5049427;28;21034;-73
2022/07/24 10:46:13;;;;;;;12.60;8.27;;;27.90;35.80;;;;;;5056112;22;20576;-88
2022/07/24 10:49:04;;;;;;;9.97;8.60;;;28.00;35.60;;;;;;5038538;28;20484;-87
2022/07/24 10:51:59;;;;;;;9.70;8.73;;;28.10;37.70;;;;;;5026370;28;20448;-88
2022/07/24 10:54:45;;;;;;;13.70;9.23;;;28.10;33.40;;;;;;5031328;28;20440;-88
2022/07/24 10:57:46;;;;;;;8.60;7.80;;;28.20;34.80;;;;;;5028589;28;20527;-88
2022/07/24 11:00:34;;;;;;;11.50;9.40;;;28.30;38.00;;;;;;5032929;28;20826;-88
2022/07/24 11:03:23;;;;;;;14.43;8.00;;;28.50;36.90;;;;;;5031801;28;20440;-88
2022/07/24 11:06:12;;;;;;;9.50;8.37;;;28.60;34.90;;;;;;5027050;28;20712;-88
2022/07/24 11:09:02;;;;;;;9.07;7.80;;;28.70;35.80;;;;;;5026227;28;20484;-88
2022/07/24 11:12:04;;;;;;;10.20;8.60;;;28.80;35.10;;;;;;5031019;28;20464;-88
2022/07/24 11:14:51;;;;;;;11.60;8.57;;;28.90;34.80;;;;;;5027148;28;20484;-87
2022/07/24 11:17:39;;;;;;;11.60;9.97;;;29.00;34.10;;;;;;5028477;28;20457;-88
2022/07/24 11:20:33;;;;;;;13.20;9.37;;;29.00;33.80;;;;;;5029847;28;20460;-89
2022/07/24 11:23:23;;;;;;;11.87;8.07;;;29.00;33.80;;;;;;5032702;28;20473;-89
2022/07/24 11:26:40;;;;;;;11.70;8.43;;;29.00;31.10;;;;;;5023665;28;20453;-89
2022/07/24 11:29:29;;;;;;;10.97;6.73;;;29.00;30.40;;;;;;5030872;28;20488;-88
2022/07/24 11:32:17;;;;;;;11.10;8.17;;;29.00;32.50;;;;;;5029701;28;20447;-88
2022/07/24 11:35:04;;;;;;;10.13;7.83;;;29.10;32.60;;;;;;5034899;28;21284;-89
2022/07/24 11:37:51;;;;;;;8.90;7.97;;;29.20;30.10;;;;;;5020075;28;20445;-89
2022/07/24 11:40:38;;;;;;;9.90;8.53;;;29.10;29.70;;;;;;5024632;28;20965;-89
2022/07/24 11:43:23;;;;;;;8.33;7.30;;;28.90;31.20;;;;;;5031049;28;20504;-88
2022/07/24 11:46:09;;;;;;;13.37;8.50;;;29.00;31.70;;;;;;5027185;28;20456;-88
2022/07/24 11:49:03;;;;;;;12.50;9.47;;;29.10;33.90;;;;;;5025108;28;20491;-88
2022/07/24 11:51:50;;;;;;;10.27;9.00;;;29.10;30.60;;;;;;5033809;28;20476;-89
2022/07/24 11:54:40;;;;;;;9.90;8.37;;;29.20;30.80;;;;;;5032546;28;20444;-88
2022/07/24 11:57:29;;;;;;;13.87;8.27;;;29.40;31.80;;;;;;5026023;28;20601;-88
2022/07/24 12:00:17;;;;;;;11.80;8.27;;;29.60;34.20;;;;;;5025663;28;20457;-88
2022/07/24 12:03:03;;;;;;;9.10;7.70;;;29.60;28.90;;;;;;5030314;28;20445;-88
2022/07/24 12:05:49;;;;;;;14.50;8.07;;;29.70;30.00;;;;;;5032184;28;20456;-88
2022/07/24 12:08:35;;;;;;;8.10;6.70;;;29.80;28.30;;;;;;5024972;28;20480;-88
2022/07/24 12:11:22;;;;;;;7.00;6.10;;;29.90;27.70;;;;;;5032261;28;20483;-89
2022/07/24 12:14:16;;;;;;;8.07;5.90;;;30.00;27.30;;;;;;5031145;28;21012;-87
2022/07/24 12:17:02;;;;;;;13.00;7.80;;;30.10;26.60;;;;;;5029197;28;20431;-88
2022/07/24 12:19:56;;;;;;;10.73;7.37;;;30.20;26.20;;;;;;5027798;28;20455;-87
2022/07/24 12:22:42;;;;;;;11.00;7.13;;;30.30;26.30;;;;;;5023718;28;20444;-88
2022/07/24 12:25:29;;;;;;;10.93;7.07;;;30.40;27.30;;;;;;5025182;28;20499;-89
2022/07/24 12:28:17;;;;;;;7.67;6.87;;;30.50;27.00;;;;;;5027844;28;20445;-88
2022/07/24 12:31:09;;;;;;;18.00;7.40;;;30.60;27.10;;;;;;5026380;28;20577;-89
2022/07/24 12:33:55;;;;;;;7.70;6.30;;;30.60;26.60;;;;;;5030459;28;20960;-89
2022/07/24 12:36:41;;;;;;;9.50;6.90;;;30.60;25.90;;;;;;5023234;28;20469;-88
2022/07/24 12:39:27;;;;;;;7.20;5.90;;;30.60;26.50;;;;;;5028381;28;20480;-88
2022/07/24 12:42:13;;;;;;;7.90;6.23;;;30.70;25.00;;;;;;5028022;28;20440;-89
2022/07/24 12:45:09;;;;;;;8.03;6.20;;;30.70;24.50;;;;;;5025010;28;21122;-89
2022/07/24 12:48:18;;;;;;;7.87;6.30;;;30.60;23.80;;;;;;5024879;28;20859;-88
2022/07/24 12:51:06;;;;;;;7.10;6.30;;;30.70;25.30;;;;;;5028310;28;20977;-88
2022/07/24 12:53:55;;;;;;;8.20;5.93;;;30.80;24.50;;;;;;5023411;28;21050;-88
2022/07/24 12:56:41;;;;;;;8.20;5.80;;;31.00;26.70;;;;;;5024225;28;20479;-86
2022/07/24 12:59:30;;;;;;;8.10;6.83;;;31.10;23.90;;;;;;5023866;28;20479;-87
2022/07/24 13:02:18;;;;;;;7.40;6.40;;;31.30;23.40;;;;;;5028494;28;20442;-87
2022/07/24 13:05:06;;;;;;;7.50;6.20;;;31.40;23.80;;;;;;5030329;28;20441;-87
2022/07/24 13:07:53;;;;;;;6.40;5.80;;;31.60;25.60;;;;;;5023666;28;20441;-88
2022/07/24 13:10:38;;;;;;;6.97;6.03;;;31.70;23.20;;;;;;5029574;28;20864;-87
2022/07/24 13:13:24;;;;;;;6.90;6.17;;;31.80;23.30;;;;;;5019967;28;20446;-89
2022/07/24 13:16:10;;;;;;;7.77;6.40;;;31.80;22.60;;;;;;5022911;28;20432;-88
2022/07/24 13:18:55;;;;;;;7.50;5.80;;;31.70;22.20;;;;;;5024365;28;20626;-88
2022/07/24 13:21:43;;;;;;;10.20;5.70;;;31.90;23.40;;;;;;5025964;28;20807;-86
2022/07/24 13:24:29;;;;;;;14.10;6.60;;;32.00;21.70;;;;;;5029292;28;20517;-88
2022/07/24 13:27:16;;;;;;;7.97;5.00;;;32.00;21.30;;;;;;5026451;28;20448;-89
2022/07/24 13:30:03;;;;;;;7.17;4.90;;;32.10;21.90;;;;;;5068773;22;20493;-77
2022/07/24 13:32:49;;;;;;;8.47;5.30;;;32.30;20.90;;;;;;5063301;28;20454;-77
2022/07/24 13:35:36;;;;;;;12.00;5.70;;;32.40;21.50;;;;;;5066418;28;20466;-77
2022/07/24 13:38:23;;;;;;;9.53;6.10;;;32.60;22.30;;;;;;5062130;28;20443;-77
2022/07/24 13:41:09;;;;;;;7.97;5.47;;;32.60;20.80;;;;;;5073083;28;20857;-77
2022/07/24 13:43:55;;;;;;;16.00;6.13;;;32.70;21.50;;;;;;5073515;28;21291;-77
2022/07/24 13:46:41;;;;;;;6.07;5.40;;;32.90;21.00;;;;;;5068217;28;20479;-77
2022/07/24 13:49:27;;;;;;;6.67;6.00;;;32.90;20.40;;;;;;5063025;28;20960;-77
2022/07/24 13:52:12;;;;;;;8.20;5.70;;;32.80;20.30;;;;;;5068839;28;20581;-77
2022/07/24 13:54:59;;;;;;;7.50;5.40;;;32.90;20.70;;;;;;5067967;28;20812;-77
2022/07/24 13:57:45;;;;;;;6.60;5.63;;;32.80;21.60;;;;;;5065774;28;20942;-77
2022/07/24 14:00:30;;;;;;;6.73;5.40;;;32.90;20.80;;;;;;5068283;28;21218;-77
2022/07/24 14:03:16;;;;;;;6.43;5.73;;;32.90;18.50;;;;;;5066475;28;20589;-76
2022/07/24 14:06:02;;;;;;;11.60;5.40;;;32.80;21.30;;;;;;5065884;28;20516;-77
2022/07/24 14:08:47;;;;;;;6.47;5.30;;;32.90;19.50;;;;;;5068237;28;20806;-77
2022/07/24 14:11:35;;;;;;;7.20;6.00;;;32.70;20.00;;;;;;5073704;28;20439;-77
2022/07/24 14:14:21;;;;;;;8.57;5.40;;;32.60;20.50;;;;;;5069818;28;20582;-77
2022/07/24 14:17:06;;;;;;;6.10;5.47;;;32.60;19.20;;;;;;5062228;28;20509;-77
2022/07/24 14:19:52;;;;;;;7.53;5.63;;;32.60;21.00;;;;;;5072605;28;20465;-77
2022/07/24 14:22:38;;;;;;;8.13;6.17;;;32.60;20.40;;;;;;5075388;28;20446;-77
2022/07/24 14:25:24;;;;;;;12.10;6.17;;;32.70;20.60;;;;;;5074452;28;20525;-77